Espartinas, Spain
Current Conditions -  °F | °C
As of 10:00 AM on Sunday 26 Oct 2014 (Local Time) from LEZL Reporting Station
Clear Clear  
Wind Chill: 61°   Ceiling: Unl
Heat Index: 61°   Visibility: 6mi
Dew Point: 48°   Wind: 2mph
Humidity: 63%   Direction: 50°NE
Pressure: 30.12"   Gusts: NA
Location:  37.38°N, 6.13°W
Report Text: LEZL 260800Z 05002KT CAVOK 16/09 Q1020 NOSIG
Loading
Personal Weather Stations






























Interactive Weather Map New forecast layout! Learn more

10-Day Weather Forecast

Advertisements
Track Severe Weather on mobile